<?xml version="1.0" encoding="UTF-8" standalone="no" ?>
<gpx xmlns="http://www.topografix.com/GPX/1/1" xmlns:xsi="http://www.w3.org/2001/XMLSchema-instance" xsi:schemaLocation="http://www.topografix.com/GPX/1/1 http://www.topografix.com/GPX/1/1/gpx.xsd" version="1.1" creator="VisuGPX - https://www.visugpx.com">
  <metadata>
    <name>La Brague : près de la rivière</name>
    <desc><![CDATA[Peu roulant et assez glissant.]]></desc>
  </metadata>
  <trk>
    <name><![CDATA[2010-10-14 11:45:53 +0200]]></name>
    <cmt><![CDATA[2010-10-14 11:45:53 +0200]]></cmt>
    <trkseg>
      <trkpt lat="43.61089" lon="7.02163">
        <ele>198</ele>
        <time>2010-10-14T09:45:53Z</time>
      </trkpt>
      <trkpt lat="43.61085" lon="7.02185">
        <ele>189</ele>
        <time>2010-10-14T09:46:04Z</time>
      </trkpt>
      <trkpt lat="43.61091" lon="7.02179">
        <ele>186</ele>
        <time>2010-10-14T09:46:58Z</time>
      </trkpt>
      <trkpt lat="43.61101" lon="7.02176">
        <ele>187</ele>
        <time>2010-10-14T09:47:06Z</time>
      </trkpt>
      <trkpt lat="43.61108" lon="7.0218">
        <ele>187</ele>
        <time>2010-10-14T09:47:10Z</time>
      </trkpt>
      <trkpt lat="43.6111" lon="7.02188">
        <ele>187</ele>
        <time>2010-10-14T09:47:12Z</time>
      </trkpt>
      <trkpt lat="43.61117" lon="7.02211">
        <ele>190</ele>
        <time>2010-10-14T09:47:16Z</time>
      </trkpt>
      <trkpt lat="43.61121" lon="7.02223">
        <ele>191</ele>
        <time>2010-10-14T09:47:18Z</time>
      </trkpt>
      <trkpt lat="43.61129" lon="7.02288">
        <ele>190</ele>
        <time>2010-10-14T09:47:29Z</time>
      </trkpt>
      <trkpt lat="43.61108" lon="7.02319">
        <ele>190</ele>
        <time>2010-10-14T09:47:37Z</time>
      </trkpt>
      <trkpt lat="43.61107" lon="7.02326">
        <ele>190</ele>
        <time>2010-10-14T09:47:39Z</time>
      </trkpt>
      <trkpt lat="43.61104" lon="7.02331">
        <ele>190</ele>
        <time>2010-10-14T09:47:41Z</time>
      </trkpt>
      <trkpt lat="43.6109" lon="7.0234">
        <ele>190</ele>
        <time>2010-10-14T09:47:47Z</time>
      </trkpt>
      <trkpt lat="43.61084" lon="7.02339">
        <ele>191</ele>
        <time>2010-10-14T09:47:50Z</time>
      </trkpt>
      <trkpt lat="43.6108" lon="7.02334">
        <ele>191</ele>
        <time>2010-10-14T09:47:53Z</time>
      </trkpt>
      <trkpt lat="43.61075" lon="7.02314">
        <ele>191</ele>
        <time>2010-10-14T09:47:59Z</time>
      </trkpt>
      <trkpt lat="43.61075" lon="7.02297">
        <ele>191</ele>
        <time>2010-10-14T09:48:03Z</time>
      </trkpt>
      <trkpt lat="43.61072" lon="7.02287">
        <ele>191</ele>
        <time>2010-10-14T09:48:05Z</time>
      </trkpt>
      <trkpt lat="43.61059" lon="7.02271">
        <ele>191</ele>
        <time>2010-10-14T09:48:09Z</time>
      </trkpt>
      <trkpt lat="43.61049" lon="7.02266">
        <ele>191</ele>
        <time>2010-10-14T09:48:12Z</time>
      </trkpt>
      <trkpt lat="43.61042" lon="7.02268">
        <ele>191</ele>
        <time>2010-10-14T09:48:14Z</time>
      </trkpt>
      <trkpt lat="43.60917" lon="7.02354">
        <ele>185</ele>
        <time>2010-10-14T09:48:39Z</time>
      </trkpt>
      <trkpt lat="43.60851" lon="7.0254">
        <ele>178</ele>
        <time>2010-10-14T09:49:06Z</time>
      </trkpt>
      <trkpt lat="43.60858" lon="7.02754">
        <ele>172</ele>
        <time>2010-10-14T09:49:37Z</time>
      </trkpt>
      <trkpt lat="43.60878" lon="7.02788">
        <ele>172</ele>
        <time>2010-10-14T09:49:54Z</time>
      </trkpt>
      <trkpt lat="43.60879" lon="7.02796">
        <ele>172</ele>
        <time>2010-10-14T09:50:11Z</time>
      </trkpt>
      <trkpt lat="43.60885" lon="7.02801">
        <ele>172</ele>
        <time>2010-10-14T09:50:21Z</time>
      </trkpt>
      <trkpt lat="43.60948" lon="7.02833">
        <ele>174</ele>
        <time>2010-10-14T09:50:57Z</time>
      </trkpt>
      <trkpt lat="43.60958" lon="7.02851">
        <ele>174</ele>
        <time>2010-10-14T09:51:04Z</time>
      </trkpt>
      <trkpt lat="43.60978" lon="7.0294">
        <ele>181</ele>
        <time>2010-10-14T09:51:18Z</time>
      </trkpt>
      <trkpt lat="43.61049" lon="7.0308">
        <ele>179</ele>
        <time>2010-10-14T09:51:49Z</time>
      </trkpt>
      <trkpt lat="43.61092" lon="7.03299">
        <ele>178</ele>
        <time>2010-10-14T09:52:20Z</time>
      </trkpt>
      <trkpt lat="43.61106" lon="7.03322">
        <ele>177</ele>
        <time>2010-10-14T09:52:24Z</time>
      </trkpt>
      <trkpt lat="43.61126" lon="7.03333">
        <ele>176</ele>
        <time>2010-10-14T09:52:28Z</time>
      </trkpt>
      <trkpt lat="43.61147" lon="7.03327">
        <ele>175</ele>
        <time>2010-10-14T09:52:32Z</time>
      </trkpt>
      <trkpt lat="43.61262" lon="7.03257">
        <ele>170</ele>
        <time>2010-10-14T09:52:59Z</time>
      </trkpt>
      <trkpt lat="43.61281" lon="7.03291">
        <ele>169</ele>
        <time>2010-10-14T09:53:06Z</time>
      </trkpt>
      <trkpt lat="43.61315" lon="7.0347">
        <ele>167</ele>
        <time>2010-10-14T09:53:37Z</time>
      </trkpt>
      <trkpt lat="43.61319" lon="7.03591">
        <ele>168</ele>
        <time>2010-10-14T09:53:54Z</time>
      </trkpt>
      <trkpt lat="43.61372" lon="7.03651">
        <ele>164</ele>
        <time>2010-10-14T09:54:06Z</time>
      </trkpt>
      <trkpt lat="43.61388" lon="7.03657">
        <ele>163</ele>
        <time>2010-10-14T09:54:09Z</time>
      </trkpt>
      <trkpt lat="43.61477" lon="7.0362">
        <ele>161</ele>
        <time>2010-10-14T09:54:29Z</time>
      </trkpt>
      <trkpt lat="43.61472" lon="7.0362">
        <ele>160</ele>
        <time>2010-10-14T09:55:15Z</time>
      </trkpt>
      <trkpt lat="43.61399" lon="7.03655">
        <ele>158</ele>
        <time>2010-10-14T09:55:46Z</time>
      </trkpt>
      <trkpt lat="43.61372" lon="7.03651">
        <ele>158</ele>
        <time>2010-10-14T09:55:54Z</time>
      </trkpt>
      <trkpt lat="43.61321" lon="7.03603">
        <ele>158</ele>
        <time>2010-10-14T09:56:14Z</time>
      </trkpt>
      <trkpt lat="43.61316" lon="7.0357">
        <ele>158</ele>
        <time>2010-10-14T09:56:22Z</time>
      </trkpt>
      <trkpt lat="43.61316" lon="7.03448">
        <ele>160</ele>
        <time>2010-10-14T09:56:54Z</time>
      </trkpt>
      <trkpt lat="43.61282" lon="7.03301">
        <ele>162</ele>
        <time>2010-10-14T09:57:25Z</time>
      </trkpt>
      <trkpt lat="43.61264" lon="7.03258">
        <ele>163</ele>
        <time>2010-10-14T09:57:33Z</time>
      </trkpt>
      <trkpt lat="43.61199" lon="7.03233">
        <ele>161</ele>
        <time>2010-10-14T09:57:48Z</time>
      </trkpt>
      <trkpt lat="43.612" lon="7.03222">
        <ele>161</ele>
        <time>2010-10-14T09:57:51Z</time>
      </trkpt>
      <trkpt lat="43.6123" lon="7.03105">
        <ele>163</ele>
        <time>2010-10-14T09:58:22Z</time>
      </trkpt>
      <trkpt lat="43.61243" lon="7.03002">
        <ele>167</ele>
        <time>2010-10-14T09:58:52Z</time>
      </trkpt>
      <trkpt lat="43.61248" lon="7.02905">
        <ele>170</ele>
        <time>2010-10-14T09:59:22Z</time>
      </trkpt>
      <trkpt lat="43.61246" lon="7.02897">
        <ele>171</ele>
        <time>2010-10-14T09:59:25Z</time>
      </trkpt>
      <trkpt lat="43.61245" lon="7.02892">
        <ele>171</ele>
        <time>2010-10-14T09:59:39Z</time>
      </trkpt>
      <trkpt lat="43.61244" lon="7.02886">
        <ele>173</ele>
        <time>2010-10-14T09:59:42Z</time>
      </trkpt>
      <trkpt lat="43.61238" lon="7.02888">
        <ele>173</ele>
        <time>2010-10-14T09:59:47Z</time>
      </trkpt>
      <trkpt lat="43.61199" lon="7.02916">
        <ele>177</ele>
        <time>2010-10-14T10:00:17Z</time>
      </trkpt>
      <trkpt lat="43.61174" lon="7.02912">
        <ele>180</ele>
        <time>2010-10-14T10:00:33Z</time>
      </trkpt>
      <trkpt lat="43.61144" lon="7.02881">
        <ele>183</ele>
        <time>2010-10-14T10:00:58Z</time>
      </trkpt>
      <trkpt lat="43.61142" lon="7.02874">
        <ele>184</ele>
        <time>2010-10-14T10:01:02Z</time>
      </trkpt>
      <trkpt lat="43.61135" lon="7.02797">
        <ele>188</ele>
        <time>2010-10-14T10:01:36Z</time>
      </trkpt>
      <trkpt lat="43.61112" lon="7.0274">
        <ele>192</ele>
        <time>2010-10-14T10:02:08Z</time>
      </trkpt>
      <trkpt lat="43.61115" lon="7.02734">
        <ele>193</ele>
        <time>2010-10-14T10:02:11Z</time>
      </trkpt>
      <trkpt lat="43.61121" lon="7.02734">
        <ele>193</ele>
        <time>2010-10-14T10:02:14Z</time>
      </trkpt>
      <trkpt lat="43.61151" lon="7.02731">
        <ele>197</ele>
        <time>2010-10-14T10:02:28Z</time>
      </trkpt>
      <trkpt lat="43.61158" lon="7.02727">
        <ele>199</ele>
        <time>2010-10-14T10:02:30Z</time>
      </trkpt>
      <trkpt lat="43.61182" lon="7.02669">
        <ele>206</ele>
        <time>2010-10-14T10:02:40Z</time>
      </trkpt>
      <trkpt lat="43.61191" lon="7.02523">
        <ele>209</ele>
        <time>2010-10-14T10:03:04Z</time>
      </trkpt>
      <trkpt lat="43.61173" lon="7.02464">
        <ele>208</ele>
        <time>2010-10-14T10:03:20Z</time>
      </trkpt>
      <trkpt lat="43.61176" lon="7.02458">
        <ele>208</ele>
        <time>2010-10-14T10:03:22Z</time>
      </trkpt>
      <trkpt lat="43.6118" lon="7.02456">
        <ele>208</ele>
        <time>2010-10-14T10:03:24Z</time>
      </trkpt>
      <trkpt lat="43.61201" lon="7.02451">
        <ele>208</ele>
        <time>2010-10-14T10:03:32Z</time>
      </trkpt>
      <trkpt lat="43.61209" lon="7.02441">
        <ele>207</ele>
        <time>2010-10-14T10:03:36Z</time>
      </trkpt>
      <trkpt lat="43.6121" lon="7.0243">
        <ele>207</ele>
        <time>2010-10-14T10:03:40Z</time>
      </trkpt>
      <trkpt lat="43.61211" lon="7.02415">
        <ele>207</ele>
        <time>2010-10-14T10:03:47Z</time>
      </trkpt>
      <trkpt lat="43.61221" lon="7.024">
        <ele>207</ele>
        <time>2010-10-14T10:03:55Z</time>
      </trkpt>
      <trkpt lat="43.61288" lon="7.02342">
        <ele>209</ele>
        <time>2010-10-14T10:04:25Z</time>
      </trkpt>
      <trkpt lat="43.61353" lon="7.02334">
        <ele>213</ele>
        <time>2010-10-14T10:04:57Z</time>
      </trkpt>
      <trkpt lat="43.61372" lon="7.02328">
        <ele>214</ele>
        <time>2010-10-14T10:05:06Z</time>
      </trkpt>
      <trkpt lat="43.61375" lon="7.02322">
        <ele>214</ele>
        <time>2010-10-14T10:05:09Z</time>
      </trkpt>
      <trkpt lat="43.61376" lon="7.02312">
        <ele>215</ele>
        <time>2010-10-14T10:05:13Z</time>
      </trkpt>
      <trkpt lat="43.61359" lon="7.0227">
        <ele>215</ele>
        <time>2010-10-14T10:05:28Z</time>
      </trkpt>
      <trkpt lat="43.61356" lon="7.02264">
        <ele>215</ele>
        <time>2010-10-14T10:05:32Z</time>
      </trkpt>
      <trkpt lat="43.61314" lon="7.02201">
        <ele>216</ele>
        <time>2010-10-14T10:06:05Z</time>
      </trkpt>
      <trkpt lat="43.61294" lon="7.02127">
        <ele>218</ele>
        <time>2010-10-14T10:06:27Z</time>
      </trkpt>
      <trkpt lat="43.613" lon="7.02081">
        <ele>219</ele>
        <time>2010-10-14T10:06:36Z</time>
      </trkpt>
      <trkpt lat="43.61291" lon="7.02058">
        <ele>220</ele>
        <time>2010-10-14T10:06:41Z</time>
      </trkpt>
      <trkpt lat="43.61248" lon="7.01922">
        <ele>224</ele>
        <time>2010-10-14T10:07:04Z</time>
      </trkpt>
      <trkpt lat="43.61252" lon="7.01905">
        <ele>224</ele>
        <time>2010-10-14T10:07:08Z</time>
      </trkpt>
      <trkpt lat="43.61259" lon="7.01895">
        <ele>224</ele>
        <time>2010-10-14T10:07:11Z</time>
      </trkpt>
      <trkpt lat="43.61265" lon="7.01891">
        <ele>223</ele>
        <time>2010-10-14T10:07:14Z</time>
      </trkpt>
      <trkpt lat="43.61351" lon="7.01819">
        <ele>224</ele>
        <time>2010-10-14T10:07:44Z</time>
      </trkpt>
      <trkpt lat="43.61444" lon="7.0175">
        <ele>223</ele>
        <time>2010-10-14T10:08:08Z</time>
      </trkpt>
      <trkpt lat="43.61461" lon="7.01746">
        <ele>221</ele>
        <time>2010-10-14T10:08:12Z</time>
      </trkpt>
      <trkpt lat="43.61472" lon="7.01739">
        <ele>220</ele>
        <time>2010-10-14T10:08:15Z</time>
      </trkpt>
      <trkpt lat="43.61558" lon="7.01666">
        <ele>214</ele>
        <time>2010-10-14T10:08:37Z</time>
      </trkpt>
      <trkpt lat="43.61624" lon="7.01552">
        <ele>214</ele>
        <time>2010-10-14T10:09:07Z</time>
      </trkpt>
      <trkpt lat="43.6169" lon="7.01442">
        <ele>213</ele>
        <time>2010-10-14T10:09:37Z</time>
      </trkpt>
      <trkpt lat="43.61697" lon="7.01424">
        <ele>213</ele>
        <time>2010-10-14T10:09:41Z</time>
      </trkpt>
      <trkpt lat="43.61696" lon="7.01404">
        <ele>213</ele>
        <time>2010-10-14T10:09:52Z</time>
      </trkpt>
      <trkpt lat="43.61702" lon="7.01402">
        <ele>213</ele>
        <time>2010-10-14T10:09:58Z</time>
      </trkpt>
      <trkpt lat="43.61708" lon="7.01404">
        <ele>213</ele>
        <time>2010-10-14T10:10:01Z</time>
      </trkpt>
      <trkpt lat="43.6183" lon="7.0133">
        <ele>215</ele>
        <time>2010-10-14T10:10:33Z</time>
      </trkpt>
      <trkpt lat="43.61886" lon="7.01267">
        <ele>212</ele>
        <time>2010-10-14T10:11:04Z</time>
      </trkpt>
      <trkpt lat="43.61913" lon="7.01234">
        <ele>212</ele>
        <time>2010-10-14T10:11:16Z</time>
      </trkpt>
      <trkpt lat="43.61924" lon="7.01222">
        <ele>210</ele>
        <time>2010-10-14T10:11:19Z</time>
      </trkpt>
      <trkpt lat="43.61973" lon="7.011">
        <ele>208</ele>
        <time>2010-10-14T10:11:47Z</time>
      </trkpt>
      <trkpt lat="43.61981" lon="7.01097">
        <ele>207</ele>
        <time>2010-10-14T10:11:50Z</time>
      </trkpt>
      <trkpt lat="43.62002" lon="7.01093">
        <ele>207</ele>
        <time>2010-10-14T10:11:58Z</time>
      </trkpt>
      <trkpt lat="43.62037" lon="7.00997">
        <ele>207</ele>
        <time>2010-10-14T10:12:32Z</time>
      </trkpt>
      <trkpt lat="43.62068" lon="7.00942">
        <ele>207</ele>
        <time>2010-10-14T10:13:03Z</time>
      </trkpt>
      <trkpt lat="43.62085" lon="7.0091">
        <ele>211</ele>
        <time>2010-10-14T10:13:35Z</time>
      </trkpt>
      <trkpt lat="43.6211" lon="7.00885">
        <ele>219</ele>
        <time>2010-10-14T10:14:16Z</time>
      </trkpt>
      <trkpt lat="43.6213" lon="7.00868">
        <ele>224</ele>
        <time>2010-10-14T10:14:47Z</time>
      </trkpt>
      <trkpt lat="43.62171" lon="7.00847">
        <ele>230</ele>
        <time>2010-10-14T10:15:18Z</time>
      </trkpt>
      <trkpt lat="43.62325" lon="7.00767">
        <ele>237</ele>
        <time>2010-10-14T10:15:49Z</time>
      </trkpt>
      <trkpt lat="43.62336" lon="7.00763">
        <ele>237</ele>
        <time>2010-10-14T10:15:52Z</time>
      </trkpt>
      <trkpt lat="43.62358" lon="7.00772">
        <ele>236</ele>
        <time>2010-10-14T10:16:10Z</time>
      </trkpt>
      <trkpt lat="43.62362" lon="7.00768">
        <ele>236</ele>
        <time>2010-10-14T10:16:15Z</time>
      </trkpt>
      <trkpt lat="43.62368" lon="7.00741">
        <ele>235</ele>
        <time>2010-10-14T10:16:22Z</time>
      </trkpt>
      <trkpt lat="43.62387" lon="7.00716">
        <ele>231</ele>
        <time>2010-10-14T10:16:28Z</time>
      </trkpt>
      <trkpt lat="43.62493" lon="7.00637">
        <ele>229</ele>
        <time>2010-10-14T10:17:00Z</time>
      </trkpt>
      <trkpt lat="43.62566" lon="7.0058">
        <ele>230</ele>
        <time>2010-10-14T10:17:31Z</time>
      </trkpt>
      <trkpt lat="43.62643" lon="7.00555">
        <ele>235</ele>
        <time>2010-10-14T10:18:03Z</time>
      </trkpt>
      <trkpt lat="43.62723" lon="7.00564">
        <ele>238</ele>
        <time>2010-10-14T10:18:33Z</time>
      </trkpt>
      <trkpt lat="43.62794" lon="7.00603">
        <ele>241</ele>
        <time>2010-10-14T10:19:06Z</time>
      </trkpt>
      <trkpt lat="43.62838" lon="7.00611">
        <ele>242</ele>
        <time>2010-10-14T10:19:22Z</time>
      </trkpt>
      <trkpt lat="43.62974" lon="7.00629">
        <ele>246</ele>
        <time>2010-10-14T10:19:53Z</time>
      </trkpt>
      <trkpt lat="43.63172" lon="7.00661">
        <ele>247</ele>
        <time>2010-10-14T10:20:24Z</time>
      </trkpt>
      <trkpt lat="43.63291" lon="7.00655">
        <ele>246</ele>
        <time>2010-10-14T10:20:56Z</time>
      </trkpt>
      <trkpt lat="43.63319" lon="7.00656">
        <ele>246</ele>
        <time>2010-10-14T10:21:18Z</time>
      </trkpt>
      <trkpt lat="43.63323" lon="7.00661">
        <ele>246</ele>
        <time>2010-10-14T10:21:25Z</time>
      </trkpt>
      <trkpt lat="43.63329" lon="7.00685">
        <ele>246</ele>
        <time>2010-10-14T10:21:33Z</time>
      </trkpt>
      <trkpt lat="43.63323" lon="7.00701">
        <ele>245</ele>
        <time>2010-10-14T10:21:39Z</time>
      </trkpt>
      <trkpt lat="43.63211" lon="7.00849">
        <ele>239</ele>
        <time>2010-10-14T10:22:10Z</time>
      </trkpt>
      <trkpt lat="43.63152" lon="7.01107">
        <ele>233</ele>
        <time>2010-10-14T10:22:41Z</time>
      </trkpt>
      <trkpt lat="43.63125" lon="7.01209">
        <ele>233</ele>
        <time>2010-10-14T10:22:57Z</time>
      </trkpt>
      <trkpt lat="43.63091" lon="7.01365">
        <ele>232</ele>
        <time>2010-10-14T10:23:28Z</time>
      </trkpt>
      <trkpt lat="43.63035" lon="7.01453">
        <ele>231</ele>
        <time>2010-10-14T10:23:59Z</time>
      </trkpt>
      <trkpt lat="43.63003" lon="7.01485">
        <ele>231</ele>
        <time>2010-10-14T10:24:14Z</time>
      </trkpt>
      <trkpt lat="43.63001" lon="7.015">
        <ele>232</ele>
        <time>2010-10-14T10:24:18Z</time>
      </trkpt>
      <trkpt lat="43.62991" lon="7.01621">
        <ele>237</ele>
        <time>2010-10-14T10:24:49Z</time>
      </trkpt>
      <trkpt lat="43.62981" lon="7.01642">
        <ele>238</ele>
        <time>2010-10-14T10:24:55Z</time>
      </trkpt>
      <trkpt lat="43.62977" lon="7.01711">
        <ele>243</ele>
        <time>2010-10-14T10:25:14Z</time>
      </trkpt>
      <trkpt lat="43.63009" lon="7.01836">
        <ele>248</ele>
        <time>2010-10-14T10:25:46Z</time>
      </trkpt>
      <trkpt lat="43.63034" lon="7.01929">
        <ele>248</ele>
        <time>2010-10-14T10:26:09Z</time>
      </trkpt>
      <trkpt lat="43.63025" lon="7.02009">
        <ele>247</ele>
        <time>2010-10-14T10:26:28Z</time>
      </trkpt>
      <trkpt lat="43.6302" lon="7.02048">
        <ele>245</ele>
        <time>2010-10-14T10:26:34Z</time>
      </trkpt>
      <trkpt lat="43.63018" lon="7.02078">
        <ele>240</ele>
        <time>2010-10-14T10:26:38Z</time>
      </trkpt>
      <trkpt lat="43.63018" lon="7.0209">
        <ele>240</ele>
        <time>2010-10-14T10:26:40Z</time>
      </trkpt>
      <trkpt lat="43.62992" lon="7.02227">
        <ele>233</ele>
        <time>2010-10-14T10:27:06Z</time>
      </trkpt>
      <trkpt lat="43.62984" lon="7.02235">
        <ele>233</ele>
        <time>2010-10-14T10:27:10Z</time>
      </trkpt>
      <trkpt lat="43.62974" lon="7.02237">
        <ele>233</ele>
        <time>2010-10-14T10:27:14Z</time>
      </trkpt>
      <trkpt lat="43.6296" lon="7.0224">
        <ele>234</ele>
        <time>2010-10-14T10:27:18Z</time>
      </trkpt>
      <trkpt lat="43.62946" lon="7.02243">
        <ele>235</ele>
        <time>2010-10-14T10:27:22Z</time>
      </trkpt>
      <trkpt lat="43.62881" lon="7.02299">
        <ele>238</ele>
        <time>2010-10-14T10:27:38Z</time>
      </trkpt>
      <trkpt lat="43.62865" lon="7.02368">
        <ele>229</ele>
        <time>2010-10-14T10:27:49Z</time>
      </trkpt>
      <trkpt lat="43.62892" lon="7.02502">
        <ele>206</ele>
        <time>2010-10-14T10:28:09Z</time>
      </trkpt>
      <trkpt lat="43.62985" lon="7.02602">
        <ele>200</ele>
        <time>2010-10-14T10:28:32Z</time>
      </trkpt>
      <trkpt lat="43.63044" lon="7.02593">
        <ele>191</ele>
        <time>2010-10-14T10:28:44Z</time>
      </trkpt>
      <trkpt lat="43.63065" lon="7.02559">
        <ele>189</ele>
        <time>2010-10-14T10:28:56Z</time>
      </trkpt>
      <trkpt lat="43.63078" lon="7.02523">
        <ele>187</ele>
        <time>2010-10-14T10:29:04Z</time>
      </trkpt>
      <trkpt lat="43.63095" lon="7.02472">
        <ele>180</ele>
        <time>2010-10-14T10:29:14Z</time>
      </trkpt>
      <trkpt lat="43.63121" lon="7.02365">
        <ele>179</ele>
        <time>2010-10-14T10:29:44Z</time>
      </trkpt>
      <trkpt lat="43.63114" lon="7.02375">
        <ele>179</ele>
        <time>2010-10-14T10:30:01Z</time>
      </trkpt>
      <trkpt lat="43.631" lon="7.02432">
        <ele>180</ele>
        <time>2010-10-14T10:30:12Z</time>
      </trkpt>
      <trkpt lat="43.63106" lon="7.02463">
        <ele>180</ele>
        <time>2010-10-14T10:30:16Z</time>
      </trkpt>
      <trkpt lat="43.63143" lon="7.02537">
        <ele>181</ele>
        <time>2010-10-14T10:30:35Z</time>
      </trkpt>
      <trkpt lat="43.63149" lon="7.02537">
        <ele>181</ele>
        <time>2010-10-14T10:30:37Z</time>
      </trkpt>
      <trkpt lat="43.63216" lon="7.02533">
        <ele>181</ele>
        <time>2010-10-14T10:31:09Z</time>
      </trkpt>
      <trkpt lat="43.63267" lon="7.02539">
        <ele>183</ele>
        <time>2010-10-14T10:31:40Z</time>
      </trkpt>
      <trkpt lat="43.63276" lon="7.02537">
        <ele>183</ele>
        <time>2010-10-14T10:31:53Z</time>
      </trkpt>
      <trkpt lat="43.6328" lon="7.02532">
        <ele>186</ele>
        <time>2010-10-14T10:32:13Z</time>
      </trkpt>
      <trkpt lat="43.63324" lon="7.02529">
        <ele>193</ele>
        <time>2010-10-14T10:32:49Z</time>
      </trkpt>
      <trkpt lat="43.63344" lon="7.02526">
        <ele>198</ele>
        <time>2010-10-14T10:33:21Z</time>
      </trkpt>
      <trkpt lat="43.63383" lon="7.02524">
        <ele>206</ele>
        <time>2010-10-14T10:33:55Z</time>
      </trkpt>
      <trkpt lat="43.63399" lon="7.02519">
        <ele>210</ele>
        <time>2010-10-14T10:34:09Z</time>
      </trkpt>
      <trkpt lat="43.63409" lon="7.02521">
        <ele>212</ele>
        <time>2010-10-14T10:34:59Z</time>
      </trkpt>
      <trkpt lat="43.63404" lon="7.02521">
        <ele>213</ele>
        <time>2010-10-14T10:36:21Z</time>
      </trkpt>
      <trkpt lat="43.63407" lon="7.02527">
        <ele>214</ele>
        <time>2010-10-14T10:36:30Z</time>
      </trkpt>
      <trkpt lat="43.63427" lon="7.02605">
        <ele>221</ele>
        <time>2010-10-14T10:37:01Z</time>
      </trkpt>
      <trkpt lat="43.63421" lon="7.02689">
        <ele>223</ele>
        <time>2010-10-14T10:37:27Z</time>
      </trkpt>
      <trkpt lat="43.63395" lon="7.02766">
        <ele>224</ele>
        <time>2010-10-14T10:37:56Z</time>
      </trkpt>
      <trkpt lat="43.63399" lon="7.0282">
        <ele>227</ele>
        <time>2010-10-14T10:38:16Z</time>
      </trkpt>
      <trkpt lat="43.63401" lon="7.02831">
        <ele>230</ele>
        <time>2010-10-14T10:38:43Z</time>
      </trkpt>
      <trkpt lat="43.63411" lon="7.02871">
        <ele>231</ele>
        <time>2010-10-14T10:38:56Z</time>
      </trkpt>
      <trkpt lat="43.63425" lon="7.03009">
        <ele>235</ele>
        <time>2010-10-14T10:39:29Z</time>
      </trkpt>
      <trkpt lat="43.63424" lon="7.03056">
        <ele>234</ele>
        <time>2010-10-14T10:39:39Z</time>
      </trkpt>
      <trkpt lat="43.63424" lon="7.03067">
        <ele>233</ele>
        <time>2010-10-14T10:39:41Z</time>
      </trkpt>
      <trkpt lat="43.63424" lon="7.03077">
        <ele>233</ele>
        <time>2010-10-14T10:39:43Z</time>
      </trkpt>
      <trkpt lat="43.6341" lon="7.03122">
        <ele>230</ele>
        <time>2010-10-14T10:39:51Z</time>
      </trkpt>
      <trkpt lat="43.63294" lon="7.03259">
        <ele>226</ele>
        <time>2010-10-14T10:40:22Z</time>
      </trkpt>
      <trkpt lat="43.63253" lon="7.033">
        <ele>226</ele>
        <time>2010-10-14T10:40:32Z</time>
      </trkpt>
      <trkpt lat="43.63241" lon="7.03297">
        <ele>225</ele>
        <time>2010-10-14T10:40:35Z</time>
      </trkpt>
      <trkpt lat="43.63221" lon="7.03272">
        <ele>220</ele>
        <time>2010-10-14T10:40:41Z</time>
      </trkpt>
      <trkpt lat="43.63218" lon="7.03265">
        <ele>219</ele>
        <time>2010-10-14T10:40:43Z</time>
      </trkpt>
      <trkpt lat="43.63212" lon="7.03261">
        <ele>219</ele>
        <time>2010-10-14T10:40:47Z</time>
      </trkpt>
      <trkpt lat="43.63204" lon="7.03273">
        <ele>219</ele>
        <time>2010-10-14T10:40:51Z</time>
      </trkpt>
      <trkpt lat="43.63203" lon="7.03286">
        <ele>219</ele>
        <time>2010-10-14T10:40:54Z</time>
      </trkpt>
      <trkpt lat="43.63196" lon="7.03331">
        <ele>213</ele>
        <time>2010-10-14T10:41:02Z</time>
      </trkpt>
      <trkpt lat="43.63195" lon="7.03339">
        <ele>213</ele>
        <time>2010-10-14T10:41:05Z</time>
      </trkpt>
      <trkpt lat="43.6319" lon="7.03345">
        <ele>213</ele>
        <time>2010-10-14T10:41:11Z</time>
      </trkpt>
      <trkpt lat="43.63189" lon="7.03352">
        <ele>210</ele>
        <time>2010-10-14T10:42:30Z</time>
      </trkpt>
      <trkpt lat="43.63182" lon="7.03342">
        <ele>209</ele>
        <time>2010-10-14T10:42:41Z</time>
      </trkpt>
      <trkpt lat="43.63176" lon="7.03339">
        <ele>208</ele>
        <time>2010-10-14T10:42:45Z</time>
      </trkpt>
      <trkpt lat="43.63173" lon="7.03332">
        <ele>208</ele>
        <time>2010-10-14T10:42:48Z</time>
      </trkpt>
      <trkpt lat="43.63171" lon="7.03324">
        <ele>207</ele>
        <time>2010-10-14T10:42:55Z</time>
      </trkpt>
      <trkpt lat="43.63168" lon="7.03328">
        <ele>207</ele>
        <time>2010-10-14T10:43:08Z</time>
      </trkpt>
      <trkpt lat="43.63165" lon="7.03333">
        <ele>205</ele>
        <time>2010-10-14T10:43:10Z</time>
      </trkpt>
      <trkpt lat="43.63163" lon="7.03342">
        <ele>205</ele>
        <time>2010-10-14T10:43:28Z</time>
      </trkpt>
      <trkpt lat="43.63161" lon="7.03336">
        <ele>204</ele>
        <time>2010-10-14T10:43:39Z</time>
      </trkpt>
      <trkpt lat="43.6316" lon="7.03329">
        <ele>203</ele>
        <time>2010-10-14T10:43:42Z</time>
      </trkpt>
      <trkpt lat="43.63155" lon="7.03332">
        <ele>202</ele>
        <time>2010-10-14T10:43:57Z</time>
      </trkpt>
      <trkpt lat="43.63153" lon="7.0334">
        <ele>202</ele>
        <time>2010-10-14T10:44:00Z</time>
      </trkpt>
      <trkpt lat="43.63156" lon="7.03405">
        <ele>199</ele>
        <time>2010-10-14T10:44:33Z</time>
      </trkpt>
      <trkpt lat="43.63161" lon="7.03446">
        <ele>197</ele>
        <time>2010-10-14T10:44:49Z</time>
      </trkpt>
      <trkpt lat="43.6317" lon="7.03459">
        <ele>196</ele>
        <time>2010-10-14T10:44:55Z</time>
      </trkpt>
      <trkpt lat="43.6321" lon="7.03534">
        <ele>191</ele>
        <time>2010-10-14T10:45:26Z</time>
      </trkpt>
      <trkpt lat="43.63223" lon="7.0358">
        <ele>188</ele>
        <time>2010-10-14T10:46:03Z</time>
      </trkpt>
      <trkpt lat="43.63243" lon="7.03655">
        <ele>183</ele>
        <time>2010-10-14T10:46:35Z</time>
      </trkpt>
      <trkpt lat="43.63246" lon="7.03676">
        <ele>182</ele>
        <time>2010-10-14T10:46:46Z</time>
      </trkpt>
      <trkpt lat="43.63254" lon="7.03691">
        <ele>180</ele>
        <time>2010-10-14T10:47:02Z</time>
      </trkpt>
      <trkpt lat="43.63262" lon="7.03725">
        <ele>179</ele>
        <time>2010-10-14T10:47:31Z</time>
      </trkpt>
      <trkpt lat="43.63267" lon="7.03731">
        <ele>178</ele>
        <time>2010-10-14T10:47:34Z</time>
      </trkpt>
      <trkpt lat="43.63271" lon="7.03736">
        <ele>177</ele>
        <time>2010-10-14T10:47:40Z</time>
      </trkpt>
      <trkpt lat="43.63268" lon="7.0374">
        <ele>174</ele>
        <time>2010-10-14T10:47:48Z</time>
      </trkpt>
      <trkpt lat="43.63256" lon="7.03753">
        <ele>168</ele>
        <time>2010-10-14T10:48:15Z</time>
      </trkpt>
      <trkpt lat="43.63257" lon="7.0376">
        <ele>166</ele>
        <time>2010-10-14T10:48:29Z</time>
      </trkpt>
      <trkpt lat="43.63252" lon="7.03766">
        <ele>164</ele>
        <time>2010-10-14T10:48:47Z</time>
      </trkpt>
      <trkpt lat="43.63249" lon="7.03772">
        <ele>163</ele>
        <time>2010-10-14T10:48:55Z</time>
      </trkpt>
      <trkpt lat="43.63243" lon="7.03772">
        <ele>163</ele>
        <time>2010-10-14T10:49:01Z</time>
      </trkpt>
      <trkpt lat="43.6323" lon="7.03776">
        <ele>159</ele>
        <time>2010-10-14T10:49:34Z</time>
      </trkpt>
      <trkpt lat="43.63232" lon="7.03782">
        <ele>158</ele>
        <time>2010-10-14T10:49:39Z</time>
      </trkpt>
      <trkpt lat="43.63236" lon="7.03788">
        <ele>158</ele>
        <time>2010-10-14T10:49:43Z</time>
      </trkpt>
      <trkpt lat="43.63239" lon="7.03802">
        <ele>156</ele>
        <time>2010-10-14T10:49:56Z</time>
      </trkpt>
      <trkpt lat="43.63249" lon="7.03815">
        <ele>155</ele>
        <time>2010-10-14T10:50:06Z</time>
      </trkpt>
      <trkpt lat="43.63249" lon="7.03818">
        <ele>154</ele>
        <time>2010-10-14T10:50:12Z</time>
      </trkpt>
      <trkpt lat="43.63247" lon="7.03827">
        <ele>152</ele>
        <time>2010-10-14T10:50:32Z</time>
      </trkpt>
      <trkpt lat="43.63248" lon="7.03834">
        <ele>150</ele>
        <time>2010-10-14T10:50:41Z</time>
      </trkpt>
      <trkpt lat="43.63252" lon="7.03837">
        <ele>149</ele>
        <time>2010-10-14T10:50:49Z</time>
      </trkpt>
      <trkpt lat="43.63256" lon="7.0384">
        <ele>149</ele>
        <time>2010-10-14T10:50:56Z</time>
      </trkpt>
      <trkpt lat="43.63255" lon="7.03848">
        <ele>148</ele>
        <time>2010-10-14T10:51:03Z</time>
      </trkpt>
      <trkpt lat="43.6325" lon="7.03854">
        <ele>147</ele>
        <time>2010-10-14T10:51:08Z</time>
      </trkpt>
      <trkpt lat="43.63247" lon="7.03857">
        <ele>147</ele>
        <time>2010-10-14T10:51:29Z</time>
      </trkpt>
      <trkpt lat="43.63246" lon="7.03863">
        <ele>146</ele>
        <time>2010-10-14T10:51:31Z</time>
      </trkpt>
      <trkpt lat="43.63244" lon="7.03871">
        <ele>146</ele>
        <time>2010-10-14T10:51:45Z</time>
      </trkpt>
      <trkpt lat="43.63245" lon="7.03884">
        <ele>146</ele>
        <time>2010-10-14T10:51:52Z</time>
      </trkpt>
      <trkpt lat="43.6325" lon="7.03896">
        <ele>145</ele>
        <time>2010-10-14T10:51:59Z</time>
      </trkpt>
      <trkpt lat="43.63246" lon="7.03902">
        <ele>145</ele>
        <time>2010-10-14T10:52:05Z</time>
      </trkpt>
      <trkpt lat="43.63225" lon="7.03941">
        <ele>145</ele>
        <time>2010-10-14T10:52:39Z</time>
      </trkpt>
      <trkpt lat="43.63217" lon="7.03958">
        <ele>145</ele>
        <time>2010-10-14T10:52:57Z</time>
      </trkpt>
      <trkpt lat="43.63216" lon="7.03997">
        <ele>144</ele>
        <time>2010-10-14T10:53:42Z</time>
      </trkpt>
      <trkpt lat="43.63216" lon="7.04031">
        <ele>144</ele>
        <time>2010-10-14T10:54:15Z</time>
      </trkpt>
      <trkpt lat="43.63218" lon="7.04044">
        <ele>145</ele>
        <time>2010-10-14T10:54:35Z</time>
      </trkpt>
      <trkpt lat="43.63223" lon="7.04049">
        <ele>145</ele>
        <time>2010-10-14T10:54:47Z</time>
      </trkpt>
      <trkpt lat="43.63242" lon="7.04065">
        <ele>146</ele>
        <time>2010-10-14T10:55:23Z</time>
      </trkpt>
      <trkpt lat="43.63282" lon="7.04125">
        <ele>147</ele>
        <time>2010-10-14T10:55:56Z</time>
      </trkpt>
      <trkpt lat="43.63274" lon="7.04198">
        <ele>147</ele>
        <time>2010-10-14T10:56:32Z</time>
      </trkpt>
      <trkpt lat="43.63277" lon="7.04212">
        <ele>147</ele>
        <time>2010-10-14T10:56:39Z</time>
      </trkpt>
      <trkpt lat="43.63285" lon="7.04221">
        <ele>146</ele>
        <time>2010-10-14T10:56:44Z</time>
      </trkpt>
      <trkpt lat="43.63352" lon="7.0426">
        <ele>148</ele>
        <time>2010-10-14T10:57:15Z</time>
      </trkpt>
      <trkpt lat="43.63356" lon="7.04269">
        <ele>149</ele>
        <time>2010-10-14T10:57:24Z</time>
      </trkpt>
      <trkpt lat="43.63352" lon="7.04281">
        <ele>149</ele>
        <time>2010-10-14T10:57:36Z</time>
      </trkpt>
      <trkpt lat="43.63353" lon="7.04322">
        <ele>150</ele>
        <time>2010-10-14T10:58:11Z</time>
      </trkpt>
      <trkpt lat="43.63357" lon="7.04337">
        <ele>150</ele>
        <time>2010-10-14T10:58:22Z</time>
      </trkpt>
      <trkpt lat="43.63364" lon="7.04347">
        <ele>150</ele>
        <time>2010-10-14T10:58:27Z</time>
      </trkpt>
      <trkpt lat="43.63398" lon="7.04393">
        <ele>149</ele>
        <time>2010-10-14T10:58:57Z</time>
      </trkpt>
      <trkpt lat="43.634" lon="7.04407">
        <ele>149</ele>
        <time>2010-10-14T10:59:03Z</time>
      </trkpt>
      <trkpt lat="43.63393" lon="7.04448">
        <ele>149</ele>
        <time>2010-10-14T10:59:23Z</time>
      </trkpt>
      <trkpt lat="43.63384" lon="7.04471">
        <ele>149</ele>
        <time>2010-10-14T10:59:40Z</time>
      </trkpt>
      <trkpt lat="43.6339" lon="7.04499">
        <ele>149</ele>
        <time>2010-10-14T10:59:56Z</time>
      </trkpt>
      <trkpt lat="43.63422" lon="7.0456">
        <ele>148</ele>
        <time>2010-10-14T11:00:10Z</time>
      </trkpt>
      <trkpt lat="43.63422" lon="7.04604">
        <ele>146</ele>
        <time>2010-10-14T11:00:29Z</time>
      </trkpt>
      <trkpt lat="43.63432" lon="7.04617">
        <ele>143</ele>
        <time>2010-10-14T11:00:52Z</time>
      </trkpt>
      <trkpt lat="43.63447" lon="7.04615">
        <ele>141</ele>
        <time>2010-10-14T11:01:16Z</time>
      </trkpt>
      <trkpt lat="43.63454" lon="7.04625">
        <ele>140</ele>
        <time>2010-10-14T11:01:20Z</time>
      </trkpt>
      <trkpt lat="43.63456" lon="7.04644">
        <ele>140</ele>
        <time>2010-10-14T11:01:24Z</time>
      </trkpt>
      <trkpt lat="43.63452" lon="7.0475">
        <ele>139</ele>
        <time>2010-10-14T11:01:54Z</time>
      </trkpt>
      <trkpt lat="43.63454" lon="7.04834">
        <ele>138</ele>
        <time>2010-10-14T11:02:24Z</time>
      </trkpt>
      <trkpt lat="43.63443" lon="7.04903">
        <ele>138</ele>
        <time>2010-10-14T11:02:43Z</time>
      </trkpt>
      <trkpt lat="43.63442" lon="7.0491">
        <ele>137</ele>
        <time>2010-10-14T11:03:07Z</time>
      </trkpt>
      <trkpt lat="43.63445" lon="7.04915">
        <ele>137</ele>
        <time>2010-10-14T11:03:10Z</time>
      </trkpt>
      <trkpt lat="43.63444" lon="7.04913">
        <ele>133</ele>
        <time>2010-10-14T11:04:34Z</time>
      </trkpt>
      <trkpt lat="43.63442" lon="7.04919">
        <ele>133</ele>
        <time>2010-10-14T11:04:47Z</time>
      </trkpt>
      <trkpt lat="43.6344" lon="7.04934">
        <ele>132</ele>
        <time>2010-10-14T11:04:52Z</time>
      </trkpt>
      <trkpt lat="43.63443" lon="7.05027">
        <ele>130</ele>
        <time>2010-10-14T11:05:24Z</time>
      </trkpt>
      <trkpt lat="43.63435" lon="7.05071">
        <ele>128</ele>
        <time>2010-10-14T11:05:39Z</time>
      </trkpt>
      <trkpt lat="43.63432" lon="7.05078">
        <ele>127</ele>
        <time>2010-10-14T11:05:44Z</time>
      </trkpt>
      <trkpt lat="43.63428" lon="7.05082">
        <ele>127</ele>
        <time>2010-10-14T11:05:51Z</time>
      </trkpt>
      <trkpt lat="43.6335" lon="7.05151">
        <ele>126</ele>
        <time>2010-10-14T11:06:23Z</time>
      </trkpt>
      <trkpt lat="43.6333" lon="7.05164">
        <ele>126</ele>
        <time>2010-10-14T11:06:35Z</time>
      </trkpt>
      <trkpt lat="43.63327" lon="7.05171">
        <ele>126</ele>
        <time>2010-10-14T11:06:38Z</time>
      </trkpt>
      <trkpt lat="43.63322" lon="7.05173">
        <ele>126</ele>
        <time>2010-10-14T11:06:43Z</time>
      </trkpt>
      <trkpt lat="43.6332" lon="7.05165">
        <ele>126</ele>
        <time>2010-10-14T11:06:46Z</time>
      </trkpt>
      <trkpt lat="43.63317" lon="7.05158">
        <ele>125</ele>
        <time>2010-10-14T11:06:49Z</time>
      </trkpt>
      <trkpt lat="43.6331" lon="7.05156">
        <ele>125</ele>
        <time>2010-10-14T11:06:52Z</time>
      </trkpt>
      <trkpt lat="43.63298" lon="7.05163">
        <ele>124</ele>
        <time>2010-10-14T11:06:57Z</time>
      </trkpt>
      <trkpt lat="43.63293" lon="7.05162">
        <ele>124</ele>
        <time>2010-10-14T11:07:01Z</time>
      </trkpt>
      <trkpt lat="43.63288" lon="7.05165">
        <ele>123</ele>
        <time>2010-10-14T11:07:07Z</time>
      </trkpt>
      <trkpt lat="43.63285" lon="7.05172">
        <ele>123</ele>
        <time>2010-10-14T11:07:13Z</time>
      </trkpt>
      <trkpt lat="43.63264" lon="7.05274">
        <ele>123</ele>
        <time>2010-10-14T11:07:44Z</time>
      </trkpt>
      <trkpt lat="43.63244" lon="7.0535">
        <ele>125</ele>
        <time>2010-10-14T11:08:17Z</time>
      </trkpt>
      <trkpt lat="43.6319" lon="7.05445">
        <ele>125</ele>
        <time>2010-10-14T11:08:49Z</time>
      </trkpt>
      <trkpt lat="43.63163" lon="7.05588">
        <ele>126</ele>
        <time>2010-10-14T11:09:21Z</time>
      </trkpt>
      <trkpt lat="43.63174" lon="7.05687">
        <ele>126</ele>
        <time>2010-10-14T11:09:57Z</time>
      </trkpt>
      <trkpt lat="43.63176" lon="7.0571">
        <ele>126</ele>
        <time>2010-10-14T11:10:11Z</time>
      </trkpt>
      <trkpt lat="43.63167" lon="7.05738">
        <ele>125</ele>
        <time>2010-10-14T11:10:35Z</time>
      </trkpt>
      <trkpt lat="43.63118" lon="7.05791">
        <ele>122</ele>
        <time>2010-10-14T11:11:06Z</time>
      </trkpt>
      <trkpt lat="43.63058" lon="7.05829">
        <ele>121</ele>
        <time>2010-10-14T11:11:37Z</time>
      </trkpt>
      <trkpt lat="43.63048" lon="7.05855">
        <ele>121</ele>
        <time>2010-10-14T11:11:44Z</time>
      </trkpt>
      <trkpt lat="43.63051" lon="7.05978">
        <ele>122</ele>
        <time>2010-10-14T11:12:12Z</time>
      </trkpt>
      <trkpt lat="43.63073" lon="7.06098">
        <ele>122</ele>
        <time>2010-10-14T11:12:46Z</time>
      </trkpt>
      <trkpt lat="43.63056" lon="7.0613">
        <ele>121</ele>
        <time>2010-10-14T11:12:57Z</time>
      </trkpt>
      <trkpt lat="43.63006" lon="7.06223">
        <ele>118</ele>
        <time>2010-10-14T11:13:28Z</time>
      </trkpt>
      <trkpt lat="43.62971" lon="7.06279">
        <ele>117</ele>
        <time>2010-10-14T11:13:44Z</time>
      </trkpt>
      <trkpt lat="43.62949" lon="7.06299">
        <ele>113</ele>
        <time>2010-10-14T11:14:14Z</time>
      </trkpt>
      <trkpt lat="43.62889" lon="7.06339">
        <ele>107</ele>
        <time>2010-10-14T11:14:48Z</time>
      </trkpt>
      <trkpt lat="43.62848" lon="7.06383">
        <ele>105</ele>
        <time>2010-10-14T11:15:20Z</time>
      </trkpt>
      <trkpt lat="43.62798" lon="7.06416">
        <ele>106</ele>
        <time>2010-10-14T11:15:53Z</time>
      </trkpt>
      <trkpt lat="43.62751" lon="7.06405">
        <ele>108</ele>
        <time>2010-10-14T11:16:28Z</time>
      </trkpt>
      <trkpt lat="43.62718" lon="7.06377">
        <ele>110</ele>
        <time>2010-10-14T11:16:58Z</time>
      </trkpt>
      <trkpt lat="43.627" lon="7.06335">
        <ele>111</ele>
        <time>2010-10-14T11:17:29Z</time>
      </trkpt>
      <trkpt lat="43.62675" lon="7.06291">
        <ele>114</ele>
        <time>2010-10-14T11:18:00Z</time>
      </trkpt>
      <trkpt lat="43.62653" lon="7.06226">
        <ele>118</ele>
        <time>2010-10-14T11:18:32Z</time>
      </trkpt>
      <trkpt lat="43.62658" lon="7.06156">
        <ele>122</ele>
        <time>2010-10-14T11:19:03Z</time>
      </trkpt>
      <trkpt lat="43.6269" lon="7.06096">
        <ele>127</ele>
        <time>2010-10-14T11:19:33Z</time>
      </trkpt>
      <trkpt lat="43.62709" lon="7.06064">
        <ele>129</ele>
        <time>2010-10-14T11:19:54Z</time>
      </trkpt>
      <trkpt lat="43.62706" lon="7.06042">
        <ele>131</ele>
        <time>2010-10-14T11:20:05Z</time>
      </trkpt>
      <trkpt lat="43.6271" lon="7.06036">
        <ele>131</ele>
        <time>2010-10-14T11:20:09Z</time>
      </trkpt>
      <trkpt lat="43.62716" lon="7.06036">
        <ele>132</ele>
        <time>2010-10-14T11:20:13Z</time>
      </trkpt>
      <trkpt lat="43.62745" lon="7.06056">
        <ele>134</ele>
        <time>2010-10-14T11:20:35Z</time>
      </trkpt>
      <trkpt lat="43.62754" lon="7.06082">
        <ele>137</ele>
        <time>2010-10-14T11:20:52Z</time>
      </trkpt>
      <trkpt lat="43.62762" lon="7.06129">
        <ele>142</ele>
        <time>2010-10-14T11:21:18Z</time>
      </trkpt>
      <trkpt lat="43.62764" lon="7.06132">
        <ele>143</ele>
        <time>2010-10-14T11:21:31Z</time>
      </trkpt>
      <trkpt lat="43.6279" lon="7.06124">
        <ele>148</ele>
        <time>2010-10-14T11:22:05Z</time>
      </trkpt>
      <trkpt lat="43.62808" lon="7.06099">
        <ele>151</ele>
        <time>2010-10-14T11:22:21Z</time>
      </trkpt>
      <trkpt lat="43.62808" lon="7.06069">
        <ele>153</ele>
        <time>2010-10-14T11:22:33Z</time>
      </trkpt>
      <trkpt lat="43.62784" lon="7.05977">
        <ele>156</ele>
        <time>2010-10-14T11:23:04Z</time>
      </trkpt>
      <trkpt lat="43.6272" lon="7.05892">
        <ele>157</ele>
        <time>2010-10-14T11:23:34Z</time>
      </trkpt>
      <trkpt lat="43.62727" lon="7.05792">
        <ele>160</ele>
        <time>2010-10-14T11:23:56Z</time>
      </trkpt>
      <trkpt lat="43.62731" lon="7.05771">
        <ele>163</ele>
        <time>2010-10-14T11:24:00Z</time>
      </trkpt>
      <trkpt lat="43.6273" lon="7.05743">
        <ele>164</ele>
        <time>2010-10-14T11:24:06Z</time>
      </trkpt>
      <trkpt lat="43.62725" lon="7.05736">
        <ele>164</ele>
        <time>2010-10-14T11:24:08Z</time>
      </trkpt>
      <trkpt lat="43.62696" lon="7.05728">
        <ele>167</ele>
        <time>2010-10-14T11:24:14Z</time>
      </trkpt>
      <trkpt lat="43.62641" lon="7.05752">
        <ele>168</ele>
        <time>2010-10-14T11:24:24Z</time>
      </trkpt>
      <trkpt lat="43.62504" lon="7.05884">
        <ele>164</ele>
        <time>2010-10-14T11:24:54Z</time>
      </trkpt>
      <trkpt lat="43.62421" lon="7.05911">
        <ele>161</ele>
        <time>2010-10-14T11:25:13Z</time>
      </trkpt>
      <trkpt lat="43.62418" lon="7.05922">
        <ele>160</ele>
        <time>2010-10-14T11:25:15Z</time>
      </trkpt>
      <trkpt lat="43.62421" lon="7.05956">
        <ele>160</ele>
        <time>2010-10-14T11:25:25Z</time>
      </trkpt>
      <trkpt lat="43.62417" lon="7.05962">
        <ele>160</ele>
        <time>2010-10-14T11:25:28Z</time>
      </trkpt>
      <trkpt lat="43.62411" lon="7.05963">
        <ele>160</ele>
        <time>2010-10-14T11:25:31Z</time>
      </trkpt>
      <trkpt lat="43.62407" lon="7.05959">
        <ele>160</ele>
        <time>2010-10-14T11:25:35Z</time>
      </trkpt>
      <trkpt lat="43.62405" lon="7.05941">
        <ele>159</ele>
        <time>2010-10-14T11:26:34Z</time>
      </trkpt>
      <trkpt lat="43.62422" lon="7.05858">
        <ele>159</ele>
        <time>2010-10-14T11:26:50Z</time>
      </trkpt>
      <trkpt lat="43.62475" lon="7.05788">
        <ele>160</ele>
        <time>2010-10-14T11:27:02Z</time>
      </trkpt>
      <trkpt lat="43.62476" lon="7.05736">
        <ele>159</ele>
        <time>2010-10-14T11:27:08Z</time>
      </trkpt>
      <trkpt lat="43.6248" lon="7.05691">
        <ele>152</ele>
        <time>2010-10-14T11:27:14Z</time>
      </trkpt>
      <trkpt lat="43.62477" lon="7.05685">
        <ele>151</ele>
        <time>2010-10-14T11:27:15Z</time>
      </trkpt>
      <trkpt lat="43.62472" lon="7.05681">
        <ele>151</ele>
        <time>2010-10-14T11:27:16Z</time>
      </trkpt>
      <trkpt lat="43.62462" lon="7.0568">
        <ele>150</ele>
        <time>2010-10-14T11:27:18Z</time>
      </trkpt>
      <trkpt lat="43.62286" lon="7.05775">
        <ele>138</ele>
        <time>2010-10-14T11:27:49Z</time>
      </trkpt>
      <trkpt lat="43.62184" lon="7.0583">
        <ele>137</ele>
        <time>2010-10-14T11:28:06Z</time>
      </trkpt>
      <trkpt lat="43.62176" lon="7.05821">
        <ele>136</ele>
        <time>2010-10-14T11:28:08Z</time>
      </trkpt>
      <trkpt lat="43.62174" lon="7.05806">
        <ele>136</ele>
        <time>2010-10-14T11:28:10Z</time>
      </trkpt>
      <trkpt lat="43.62201" lon="7.05634">
        <ele>127</ele>
        <time>2010-10-14T11:28:30Z</time>
      </trkpt>
      <trkpt lat="43.62185" lon="7.05585">
        <ele>126</ele>
        <time>2010-10-14T11:28:35Z</time>
      </trkpt>
      <trkpt lat="43.6215" lon="7.05547">
        <ele>123</ele>
        <time>2010-10-14T11:28:41Z</time>
      </trkpt>
      <trkpt lat="43.6206" lon="7.05562">
        <ele>121</ele>
        <time>2010-10-14T11:28:55Z</time>
      </trkpt>
      <trkpt lat="43.6205" lon="7.05552">
        <ele>121</ele>
        <time>2010-10-14T11:28:58Z</time>
      </trkpt>
      <trkpt lat="43.62042" lon="7.0551">
        <ele>120</ele>
        <time>2010-10-14T11:29:05Z</time>
      </trkpt>
      <trkpt lat="43.62042" lon="7.055">
        <ele>119</ele>
        <time>2010-10-14T11:29:07Z</time>
      </trkpt>
      <trkpt lat="43.62041" lon="7.05492">
        <ele>119</ele>
        <time>2010-10-14T11:29:09Z</time>
      </trkpt>
      <trkpt lat="43.62035" lon="7.05379">
        <ele>119</ele>
        <time>2010-10-14T11:29:39Z</time>
      </trkpt>
      <trkpt lat="43.62029" lon="7.05157">
        <ele>122</ele>
        <time>2010-10-14T11:30:10Z</time>
      </trkpt>
      <trkpt lat="43.6204" lon="7.05097">
        <ele>122</ele>
        <time>2010-10-14T11:30:18Z</time>
      </trkpt>
      <trkpt lat="43.62045" lon="7.05066">
        <ele>120</ele>
        <time>2010-10-14T11:30:23Z</time>
      </trkpt>
      <trkpt lat="43.6205" lon="7.05028">
        <ele>119</ele>
        <time>2010-10-14T11:30:29Z</time>
      </trkpt>
      <trkpt lat="43.62046" lon="7.05011">
        <ele>119</ele>
        <time>2010-10-14T11:30:32Z</time>
      </trkpt>
      <trkpt lat="43.62012" lon="7.04975">
        <ele>119</ele>
        <time>2010-10-14T11:30:41Z</time>
      </trkpt>
      <trkpt lat="43.61875" lon="7.04951">
        <ele>123</ele>
        <time>2010-10-14T11:31:11Z</time>
      </trkpt>
      <trkpt lat="43.61832" lon="7.04923">
        <ele>124</ele>
        <time>2010-10-14T11:31:23Z</time>
      </trkpt>
      <trkpt lat="43.61813" lon="7.04856">
        <ele>125</ele>
        <time>2010-10-14T11:31:37Z</time>
      </trkpt>
      <trkpt lat="43.61808" lon="7.048">
        <ele>125</ele>
        <time>2010-10-14T11:31:50Z</time>
      </trkpt>
      <trkpt lat="43.61751" lon="7.0467">
        <ele>130</ele>
        <time>2010-10-14T11:32:21Z</time>
      </trkpt>
      <trkpt lat="43.61743" lon="7.04656">
        <ele>131</ele>
        <time>2010-10-14T11:32:24Z</time>
      </trkpt>
      <trkpt lat="43.61699" lon="7.04569">
        <ele>133</ele>
        <time>2010-10-14T11:32:41Z</time>
      </trkpt>
      <trkpt lat="43.61687" lon="7.04538">
        <ele>138</ele>
        <time>2010-10-14T11:32:46Z</time>
      </trkpt>
      <trkpt lat="43.61658" lon="7.04455">
        <ele>139</ele>
        <time>2010-10-14T11:33:03Z</time>
      </trkpt>
      <trkpt lat="43.61652" lon="7.04438">
        <ele>141</ele>
        <time>2010-10-14T11:33:06Z</time>
      </trkpt>
      <trkpt lat="43.61624" lon="7.04373">
        <ele>142</ele>
        <time>2010-10-14T11:33:18Z</time>
      </trkpt>
      <trkpt lat="43.61628" lon="7.0434">
        <ele>142</ele>
        <time>2010-10-14T11:33:25Z</time>
      </trkpt>
      <trkpt lat="43.61634" lon="7.04197">
        <ele>140</ele>
        <time>2010-10-14T11:33:56Z</time>
      </trkpt>
      <trkpt lat="43.61603" lon="7.04131">
        <ele>140</ele>
        <time>2010-10-14T11:34:13Z</time>
      </trkpt>
      <trkpt lat="43.61592" lon="7.04131">
        <ele>140</ele>
        <time>2010-10-14T11:34:17Z</time>
      </trkpt>
      <trkpt lat="43.61578" lon="7.04142">
        <ele>140</ele>
        <time>2010-10-14T11:34:23Z</time>
      </trkpt>
      <trkpt lat="43.61569" lon="7.04155">
        <ele>140</ele>
        <time>2010-10-14T11:34:27Z</time>
      </trkpt>
      <trkpt lat="43.61563" lon="7.04163">
        <ele>139</ele>
        <time>2010-10-14T11:35:25Z</time>
      </trkpt>
      <trkpt lat="43.61552" lon="7.04173">
        <ele>138</ele>
        <time>2010-10-14T11:35:30Z</time>
      </trkpt>
      <trkpt lat="43.61547" lon="7.04172">
        <ele>138</ele>
        <time>2010-10-14T11:35:32Z</time>
      </trkpt>
      <trkpt lat="43.61533" lon="7.04163">
        <ele>137</ele>
        <time>2010-10-14T11:35:40Z</time>
      </trkpt>
      <trkpt lat="43.61534" lon="7.04152">
        <ele>137</ele>
        <time>2010-10-14T11:35:42Z</time>
      </trkpt>
      <trkpt lat="43.61535" lon="7.0413">
        <ele>137</ele>
        <time>2010-10-14T11:35:47Z</time>
      </trkpt>
      <trkpt lat="43.61543" lon="7.04119">
        <ele>137</ele>
        <time>2010-10-14T11:35:51Z</time>
      </trkpt>
      <trkpt lat="43.61547" lon="7.04115">
        <ele>137</ele>
        <time>2010-10-14T11:35:53Z</time>
      </trkpt>
      <trkpt lat="43.61575" lon="7.04048">
        <ele>137</ele>
        <time>2010-10-14T11:36:23Z</time>
      </trkpt>
      <trkpt lat="43.61596" lon="7.03996">
        <ele>138</ele>
        <time>2010-10-14T11:36:38Z</time>
      </trkpt>
      <trkpt lat="43.61613" lon="7.03964">
        <ele>142</ele>
        <time>2010-10-14T11:36:45Z</time>
      </trkpt>
      <trkpt lat="43.61615" lon="7.03943">
        <ele>142</ele>
        <time>2010-10-14T11:36:51Z</time>
      </trkpt>
      <trkpt lat="43.61626" lon="7.03917">
        <ele>142</ele>
        <time>2010-10-14T11:36:58Z</time>
      </trkpt>
      <trkpt lat="43.61635" lon="7.03791">
        <ele>143</ele>
        <time>2010-10-14T11:37:28Z</time>
      </trkpt>
      <trkpt lat="43.61638" lon="7.03771">
        <ele>143</ele>
        <time>2010-10-14T11:37:34Z</time>
      </trkpt>
      <trkpt lat="43.61636" lon="7.03764">
        <ele>143</ele>
        <time>2010-10-14T11:37:36Z</time>
      </trkpt>
      <trkpt lat="43.61612" lon="7.03726">
        <ele>145</ele>
        <time>2010-10-14T11:38:06Z</time>
      </trkpt>
      <trkpt lat="43.61546" lon="7.0365">
        <ele>148</ele>
        <time>2010-10-14T11:38:38Z</time>
      </trkpt>
      <trkpt lat="43.61496" lon="7.03616">
        <ele>152</ele>
        <time>2010-10-14T11:38:51Z</time>
      </trkpt>
      <trkpt lat="43.61393" lon="7.03659">
        <ele>153</ele>
        <time>2010-10-14T11:39:21Z</time>
      </trkpt>
      <trkpt lat="43.61334" lon="7.03615">
        <ele>155</ele>
        <time>2010-10-14T11:39:39Z</time>
      </trkpt>
      <trkpt lat="43.6132" lon="7.03592">
        <ele>156</ele>
        <time>2010-10-14T11:39:44Z</time>
      </trkpt>
      <trkpt lat="43.61313" lon="7.03458">
        <ele>156</ele>
        <time>2010-10-14T11:40:17Z</time>
      </trkpt>
      <trkpt lat="43.61287" lon="7.0333">
        <ele>157</ele>
        <time>2010-10-14T11:40:47Z</time>
      </trkpt>
      <trkpt lat="43.61272" lon="7.03275">
        <ele>158</ele>
        <time>2010-10-14T11:40:57Z</time>
      </trkpt>
      <trkpt lat="43.61252" lon="7.03256">
        <ele>160</ele>
        <time>2010-10-14T11:41:01Z</time>
      </trkpt>
      <trkpt lat="43.6124" lon="7.0325">
        <ele>160</ele>
        <time>2010-10-14T11:41:03Z</time>
      </trkpt>
      <trkpt lat="43.61199" lon="7.03242">
        <ele>158</ele>
        <time>2010-10-14T11:41:10Z</time>
      </trkpt>
      <trkpt lat="43.61181" lon="7.03264">
        <ele>158</ele>
        <time>2010-10-14T11:41:16Z</time>
      </trkpt>
      <trkpt lat="43.61137" lon="7.03332">
        <ele>159</ele>
        <time>2010-10-14T11:41:32Z</time>
      </trkpt>
      <trkpt lat="43.61104" lon="7.03324">
        <ele>160</ele>
        <time>2010-10-14T11:41:40Z</time>
      </trkpt>
      <trkpt lat="43.61056" lon="7.03211">
        <ele>162</ele>
        <time>2010-10-14T11:42:07Z</time>
      </trkpt>
      <trkpt lat="43.61052" lon="7.03187">
        <ele>162</ele>
        <time>2010-10-14T11:42:12Z</time>
      </trkpt>
      <trkpt lat="43.61026" lon="7.03012">
        <ele>167</ele>
        <time>2010-10-14T11:42:42Z</time>
      </trkpt>
      <trkpt lat="43.60972" lon="7.02931">
        <ele>167</ele>
        <time>2010-10-14T11:43:15Z</time>
      </trkpt>
      <trkpt lat="43.60943" lon="7.02836">
        <ele>169</ele>
        <time>2010-10-14T11:43:45Z</time>
      </trkpt>
      <trkpt lat="43.60925" lon="7.02743">
        <ele>172</ele>
        <time>2010-10-14T11:44:11Z</time>
      </trkpt>
      <trkpt lat="43.60878" lon="7.02597">
        <ele>175</ele>
        <time>2010-10-14T11:44:42Z</time>
      </trkpt>
      <trkpt lat="43.60873" lon="7.0259">
        <ele>175</ele>
        <time>2010-10-14T11:44:44Z</time>
      </trkpt>
      <trkpt lat="43.60872" lon="7.02581">
        <ele>175</ele>
        <time>2010-10-14T11:44:46Z</time>
      </trkpt>
      <trkpt lat="43.60885" lon="7.0245">
        <ele>176</ele>
        <time>2010-10-14T11:45:18Z</time>
      </trkpt>
      <trkpt lat="43.60886" lon="7.02443">
        <ele>176</ele>
        <time>2010-10-14T11:45:20Z</time>
      </trkpt>
      <trkpt lat="43.60895" lon="7.02427">
        <ele>177</ele>
        <time>2010-10-14T11:45:26Z</time>
      </trkpt>
      <trkpt lat="43.60896" lon="7.0242">
        <ele>177</ele>
        <time>2010-10-14T11:45:28Z</time>
      </trkpt>
      <trkpt lat="43.60895" lon="7.02402">
        <ele>177</ele>
        <time>2010-10-14T11:45:32Z</time>
      </trkpt>
      <trkpt lat="43.60933" lon="7.02316">
        <ele>178</ele>
        <time>2010-10-14T11:45:54Z</time>
      </trkpt>
      <trkpt lat="43.61007" lon="7.02281">
        <ele>180</ele>
        <time>2010-10-14T11:46:26Z</time>
      </trkpt>
      <trkpt lat="43.61036" lon="7.02269">
        <ele>180</ele>
        <time>2010-10-14T11:46:45Z</time>
      </trkpt>
      <trkpt lat="43.61039" lon="7.02259">
        <ele>180</ele>
        <time>2010-10-14T11:46:49Z</time>
      </trkpt>
      <trkpt lat="43.61038" lon="7.02243">
        <ele>180</ele>
        <time>2010-10-14T11:46:55Z</time>
      </trkpt>
      <trkpt lat="43.61026" lon="7.02218">
        <ele>181</ele>
        <time>2010-10-14T11:47:08Z</time>
      </trkpt>
      <trkpt lat="43.61026" lon="7.02211">
        <ele>181</ele>
        <time>2010-10-14T11:47:10Z</time>
      </trkpt>
      <trkpt lat="43.61053" lon="7.02146">
        <ele>181</ele>
        <time>2010-10-14T11:47:33Z</time>
      </trkpt>
      <trkpt lat="43.6106" lon="7.0214">
        <ele>181</ele>
        <time>2010-10-14T11:47:37Z</time>
      </trkpt>
      <trkpt lat="43.61076" lon="7.02141">
        <ele>181</ele>
        <time>2010-10-14T11:47:46Z</time>
      </trkpt>
      <trkpt lat="43.61093" lon="7.02154">
        <ele>182</ele>
        <time>2010-10-14T11:47:52Z</time>
      </trkpt>
      <trkpt lat="43.61101" lon="7.02178">
        <ele>182</ele>
        <time>2010-10-14T11:47:58Z</time>
      </trkpt>
      <trkpt lat="43.61099" lon="7.02186">
        <ele>182</ele>
        <time>2010-10-14T11:48:01Z</time>
      </trkpt>
    </trkseg>
  </trk>
</gpx>